Time;durP1;ratioP1;P1;durP2;ratioP2;P2;SDS_P1;SDS_P2;PMS_P1;PMS_P2;Temp;Humidity;BMP_temperature;BMP_pressure;BME280_temperature;BME280_humidity;BME280_pressure;Samples;Min_cycle;Max_cycle;Signal;HPM_P1;HPM_P2
2023/07/24 00:03:02;;;;;;;8.70;3.30;;;;;;;18.31;66.82;99690.54;223192;1266;140014;-88
2023/07/24 00:08:03;;;;;;;9.20;3.00;;;;;;;18.21;67.18;99688.85;223727;1266;138424;-88
2023/07/24 00:13:04;;;;;;;7.60;3.20;;;;;;;18.09;67.49;99686.85;223264;1267;140082;-88
2023/07/24 00:18:04;;;;;;;9.80;3.40;;;;;;;18.00;67.61;99687.62;223735;1266;137953;-88
2023/07/24 00:23:04;;;;;;;9.90;3.30;;;;;;;17.90;68.32;99694.60;223147;1267;141911;-88
2023/07/24 00:28:05;;;;;;;8.30;3.70;;;;;;;17.78;68.90;99696.48;223706;1267;138716;-88
2023/07/24 00:33:05;;;;;;;8.90;3.50;;;;;;;17.66;69.54;99693.84;223194;1267;140458;-88
2023/07/24 00:38:06;;;;;;;7.80;3.30;;;;;;;17.55;69.83;99692.48;223726;1267;138076;-87
2023/07/24 00:43:06;;;;;;;8.70;3.40;;;;;;;17.46;70.66;99683.20;223281;1267;141262;-87
2023/07/24 00:48:07;;;;;;;9.10;3.50;;;;;;;17.34;70.55;99677.62;223682;1267;138897;-87
2023/07/24 00:53:07;;;;;;;8.30;3.60;;;;;;;17.30;70.73;99673.29;223158;1267;140567;-87
2023/07/24 00:58:11;;;;;;;9.60;3.90;;;;;;;17.22;71.52;99667.23;223692;1267;139446;-88
2023/07/24 01:03:12;;;;;;;7.30;3.50;;;;;;;17.18;71.20;99663.92;223086;1268;142213;-88
2023/07/24 01:08:12;;;;;;;7.80;3.40;;;;;;;17.17;72.45;99667.55;223681;1267;139014;-88
2023/07/24 01:13:22;;;;;;;6.30;2.80;;;;;;;17.08;73.07;99659.15;223258;1266;141563;-87
2023/07/24 01:18:24;;;;;;;9.20;3.40;;;;;;;17.03;73.75;99658.16;223684;1268;138446;-88
2023/07/24 01:23:56;;;;;;;7.00;3.50;;;;;;;17.03;74.14;99669.91;223143;1267;142166;-87
2023/07/24 01:28:56;;;;;;;6.90;3.20;;;;;;;17.05;74.26;99678.52;223115;1267;141261;-87
2023/07/24 01:33:57;;;;;;;7.50;2.90;;;;;;;17.04;74.99;99673.63;223709;1267;138938;-87
2023/07/24 01:38:58;;;;;;;7.70;3.40;;;;;;;17.03;74.33;99669.02;223127;1268;141287;-88
2023/07/24 01:44:01;;;;;;;7.80;3.10;;;;;;;17.07;74.86;99660.49;223710;1267;138661;-88
2023/07/24 01:49:02;;;;;;;7.50;3.20;;;;;;;17.12;74.95;99661.01;223235;1267;141584;-88
2023/07/24 01:54:02;;;;;;;10.50;3.70;;;;;;;17.16;74.15;99656.60;223675;1267;138422;-88
2023/07/24 01:59:03;;;;;;;10.00;3.60;;;;;;;17.20;74.80;99649.50;223167;1267;141630;-88
2023/07/24 02:04:03;;;;;;;8.40;3.20;;;;;;;17.24;74.95;99640.34;223693;1267;138970;-88
2023/07/24 02:09:04;;;;;;;9.20;3.60;;;;;;;17.27;74.53;99654.30;223127;1268;141646;-88
2023/07/24 02:14:04;;;;;;;8.80;3.70;;;;;;;17.31;75.27;99651.02;223720;1267;138738;-88
2023/07/24 02:19:05;;;;;;;11.70;3.80;;;;;;;17.34;74.91;99643.92;223262;1268;141107;-87
2023/07/24 02:24:06;;;;;;;11.10;4.00;;;;;;;17.40;75.08;99640.05;223687;1266;139007;-88
2023/07/24 02:29:06;;;;;;;8.40;3.60;;;;;;;17.45;74.95;99645.30;223096;1267;140567;-87
2023/07/24 02:34:07;;;;;;;8.10;3.40;;;;;;;17.51;74.69;99640.20;223694;1267;138963;-87
2023/07/24 02:39:08;;;;;;;9.00;3.80;;;;;;;17.57;74.22;99633.52;223174;1267;141606;-88
2023/07/24 02:44:08;;;;;;;8.80;3.80;;;;;;;17.64;74.07;99632.83;223696;1267;138987;-86
2023/07/24 02:49:09;;;;;;;8.30;3.80;;;;;;;17.70;74.05;99634.30;223208;1267;141833;-88
2023/07/24 02:54:09;;;;;;;9.00;4.00;;;;;;;17.76;74.46;99631.89;223736;1266;139036;-89
2023/07/24 02:59:09;;;;;;;10.10;4.00;;;;;;;17.82;75.99;99629.79;223184;1267;140796;-89
2023/07/24 03:04:10;;;;;;;9.20;4.00;;;;;;;17.85;76.14;99627.57;223774;1267;139185;-89
2023/07/24 03:09:10;;;;;;;6.90;3.20;;;;;;;17.88;77.34;99623.65;223157;1267;142005;-88
2023/07/24 03:14:11;;;;;;;7.20;3.40;;;;;;;17.89;78.51;99615.81;223668;1270;139035;-89
2023/07/24 03:19:11;;;;;;;8.80;3.20;;;;;;;17.90;77.70;99605.27;223204;1268;141267;-88
2023/07/24 03:24:12;;;;;;;10.00;4.60;;;;;;;17.92;77.41;99604.65;223646;1267;138901;-88
2023/07/24 03:29:12;;;;;;;7.90;3.70;;;;;;;17.94;77.13;99598.63;223140;1268;140708;-88
2023/07/24 03:34:13;;;;;;;8.70;4.10;;;;;;;17.96;77.29;99597.45;223664;1270;138823;-88
2023/07/24 03:39:13;;;;;;;8.40;3.70;;;;;;;17.99;76.96;99596.25;223174;1266;141023;-89
2023/07/24 03:44:13;;;;;;;7.80;3.80;;;;;;;18.03;76.85;99596.38;223702;1266;139262;-88
2023/07/24 03:49:14;;;;;;;8.00;3.30;;;;;;;18.08;76.52;99595.64;223301;1266;140534;-88
2023/07/24 03:54:14;;;;;;;14.50;5.00;;;;;;;18.13;76.31;99589.58;223661;1268;139327;-87
2023/07/24 03:59:15;;;;;;;11.80;4.60;;;;;;;18.19;75.82;99585.06;223159;1267;141227;-88
2023/07/24 04:04:15;;;;;;;10.50;4.00;;;;;;;18.26;75.13;99582.48;223666;1267;139541;-88
2023/07/24 04:09:15;;;;;;;7.70;3.30;;;;;;;18.33;74.42;99579.62;223144;1267;142239;-86
2023/07/24 04:14:16;;;;;;;8.90;3.80;;;;;;;18.41;73.81;99586.77;223698;1268;138829;-87
2023/07/24 04:19:16;;;;;;;7.70;3.70;;;;;;;18.47;73.48;99584.64;223162;1267;141570;-88
2023/07/24 04:24:16;;;;;;;9.60;4.00;;;;;;;18.54;73.42;99582.81;223737;1267;139187;-88
2023/07/24 04:29:17;;;;;;;12.10;4.50;;;;;;;18.60;73.07;99584.34;223162;1267;140560;-89
2023/07/24 04:34:17;;;;;;;11.40;3.40;;;;;;;18.67;72.96;99580.92;223657;1267;139358;-88
2023/07/24 04:39:18;;;;;;;10.20;3.80;;;;;;;18.74;72.77;99589.28;223139;1267;141063;-89
2023/07/24 04:44:18;;;;;;;10.50;4.10;;;;;;;18.81;72.80;99587.91;223697;1271;139326;-88
2023/07/24 04:49:19;;;;;;;9.30;3.90;;;;;;;18.87;72.70;99593.82;223228;1270;140859;-88
2023/07/24 04:54:19;;;;;;;12.00;4.50;;;;;;;18.93;72.94;99587.32;223627;1267;138789;-89
2023/07/24 04:59:20;;;;;;;9.80;3.90;;;;;;;18.97;72.50;99587.08;223130;1267;160831;-90
2023/07/24 05:04:21;;;;;;;11.50;4.70;;;;;;;19.02;72.03;99586.34;223624;1267;139262;-91
2023/07/24 05:09:21;;;;;;;12.00;4.50;;;;;;;19.06;72.27;99591.91;223159;1266;141001;-91
2023/07/24 05:14:24;;;;;;;10.80;4.50;;;;;;;19.09;72.18;99596.36;223692;1267;140171;-92
2023/07/24 05:19:25;;;;;;;9.50;3.90;;;;;;;19.12;72.05;99590.56;223237;1268;141440;-90
2023/07/24 05:24:25;;;;;;;8.40;3.50;;;;;;;19.23;71.79;99593.36;223610;1267;138792;-91
2023/07/24 05:29:26;;;;;;;9.60;4.10;;;;;;;19.35;71.62;99572.85;223162;1267;140819;-90
2023/07/24 05:34:26;;;;;;;8.10;3.70;;;;;;;19.47;71.76;99564.74;223720;1269;138896;-87
2023/07/24 05:39:29;;;;;;;10.30;3.80;;;;;;;19.58;71.57;99557.60;223111;1267;140588;-89
2023/07/24 05:44:30;;;;;;;8.70;3.70;;;;;;;19.71;71.43;99557.13;223635;1267;138762;-89
2023/07/24 05:49:30;;;;;;;8.90;3.70;;;;;;;19.84;70.80;99561.24;223068;1267;140411;-90
2023/07/24 05:54:31;;;;;;;9.30;4.00;;;;;;;20.00;70.54;99558.37;223683;1271;104242;-88
2023/07/24 05:59:32;;;;;;;9.20;4.00;;;;;;;20.17;70.24;99549.64;223200;1267;140523;-88
2023/07/24 06:04:32;;;;;;;7.30;3.50;;;;;;;20.37;69.83;99545.04;223714;1266;139816;-89
2023/07/24 06:09:33;;;;;;;8.00;3.60;;;;;;;20.57;69.40;99544.56;223149;1266;141258;-89
2023/07/24 06:14:33;;;;;;;9.20;3.70;;;;;;;20.78;68.61;99536.11;223691;1266;138736;-88
2023/07/24 06:19:34;;;;;;;8.20;3.90;;;;;;;20.98;67.83;99529.46;223151;1271;140972;-90
2023/07/24 06:24:34;;;;;;;11.80;4.90;;;;;;;21.16;67.28;99525.17;223812;1268;96002;-92
2023/07/24 06:29:35;;;;;;;9.20;3.80;;;;;;;21.35;66.68;99521.27;223039;1267;140913;-91
2023/07/24 06:34:36;;;;;;;9.60;4.00;;;;;;;21.52;65.96;99526.44;223540;1266;138752;-93
2023/07/24 06:39:36;;;;;;;10.70;4.10;;;;;;;21.69;65.31;99524.26;223173;1267;139666;-91
2023/07/24 06:44:37;;;;;;;10.90;4.00;;;;;;;21.88;64.51;99524.40;223611;1267;138767;-92
2023/07/24 06:49:38;;;;;;;9.70;4.40;;;;;;;22.08;63.78;99514.52;223076;1267;139987;-91
2023/07/24 06:54:39;;;;;;;10.00;4.20;;;;;;;22.36;63.14;99510.84;223780;1267;95833;-94
2023/07/24 06:59:39;;;;;;;7.90;4.30;;;;;;;22.71;62.17;99510.14;223032;1270;141025;-89
2023/07/24 07:04:40;;;;;;;7.50;4.00;;;;;;;23.08;61.27;99494.73;223690;1268;138775;-92
2023/07/24 07:09:40;;;;;;;10.60;4.10;;;;;;;23.45;60.57;99485.86;223128;1267;141105;-92
2023/07/24 07:14:41;;;;;;;7.70;3.40;;;;;;;23.88;60.39;99477.91;223621;1268;138291;-88
2023/07/24 07:19:41;;;;;;;5.90;3.10;;;;;;;24.44;59.41;99479.36;223142;1267;139889;-88
2023/07/24 07:24:43;;;;;;;7.10;3.10;;;;;;;24.86;57.94;99478.21;223846;1267;96150;-91
2023/07/24 07:29:44;;;;;;;9.10;3.50;;;;;;;25.30;57.37;99471.16;223166;1270;140185;-87
2023/07/24 07:34:44;;;;;;;5.30;2.70;;;;;;;25.63;55.63;99468.66;223636;1271;138275;-88
2023/07/24 07:39:45;;;;;;;11.60;3.20;;;;;;;25.82;55.97;99462.84;223108;1271;139545;-90
2023/07/24 07:44:48;;;;;;;6.90;3.30;;;;;;;25.95;53.85;99466.52;223653;1267;138874;-92
2023/07/24 07:49:49;;;;;;;8.00;3.50;;;;;;;25.82;53.91;99471.25;223179;1267;140268;-89
2023/07/24 07:54:49;;;;;;;7.40;3.50;;;;;;;25.87;53.39;99470.04;223864;1267;95853;-91
2023/07/24 07:59:50;;;;;;;7.60;3.40;;;;;;;25.90;53.64;99464.19;223134;1267;139224;-91
2023/07/24 08:04:51;;;;;;;7.10;3.60;;;;;;;26.04;53.03;99468.01;223691;1267;138546;-89
2023/07/24 08:09:51;;;;;;;7.40;3.60;;;;;;;26.15;52.99;99468.48;223084;1267;139764;-91
2023/07/24 08:14:52;;;;;;;7.50;3.30;;;;;;;26.49;52.76;99463.89;223749;1267;138089;-90
2023/07/24 08:19:52;;;;;;;6.50;3.10;;;;;;;26.90;51.98;99453.75;223205;1267;141784;-92
2023/07/24 08:24:54;;;;;;;7.80;3.20;;;;;;;27.35;50.85;99449.67;223751;1267;95889;-92
2023/07/24 08:29:54;;;;;;;8.40;3.30;;;;;;;27.97;50.04;99439.02;223173;1267;139869;-91
2023/07/24 08:34:55;;;;;;;7.00;3.40;;;;;;;28.61;49.17;99434.46;223638;1267;138107;-90
2023/07/24 08:39:55;;;;;;;7.30;3.40;;;;;;;29.24;45.86;99436.43;223212;1267;140460;-92
2023/07/24 08:44:56;;;;;;;10.50;4.20;;;;;;;29.50;45.20;99439.49;223699;1267;137950;-91
2023/07/24 08:49:58;;;;;;;7.70;3.70;;;;;;;29.74;44.38;99442.52;223212;1267;139785;-90
2023/07/24 08:55:01;;;;;;;7.50;3.50;;;;;;;30.05;43.08;99449.50;223801;1267;95818;-90
2023/07/24 09:00:04;;;;;;;8.70;4.10;;;;;;;30.37;43.60;99447.08;223057;1267;140348;-93
2023/07/24 09:05:05;;;;;;;6.30;3.40;;;;;;;30.90;41.79;99446.16;223721;1267;137947;-91
2023/07/24 09:10:09;;;;;;;7.30;3.70;;;;;;;30.74;40.24;99435.63;223176;1266;140084;-92
2023/07/24 09:15:10;;;;;;;7.30;3.50;;;;;;;30.92;41.92;99425.09;223575;1267;138166;-92
2023/07/24 09:20:11;;;;;;;8.80;4.00;;;;;;;31.50;41.18;99425.73;223138;1267;140715;-91
2023/07/24 09:25:11;;;;;;;9.80;3.70;;;;;;;31.67;40.21;99424.70;223810;1267;96094;-91
2023/07/24 09:30:23;;;;;;;7.60;3.30;;;;;;;31.94;40.49;99419.59;223171;1266;140158;-92
2023/07/24 09:35:27;;;;;;;7.10;3.80;;;;;;;32.10;39.17;99414.41;223699;1266;138284;-93
2023/07/24 09:40:27;;;;;;;7.70;4.10;;;;;;;32.06;38.60;99411.80;222558;1267;677317;-89
2023/07/24 09:45:29;;;;;;;7.40;3.80;;;;;;;32.14;38.17;99407.09;223728;1266;138048;-90
2023/07/24 09:50:30;;;;;;;6.90;3.30;;;;;;;32.31;38.43;99394.89;223145;1266;140198;-93
2023/07/24 09:55:40;;;;;;;6.90;3.40;;;;;;;32.52;36.58;99387.14;223726;1267;95887;-90
2023/07/24 10:00:40;;;;;;;6.30;3.50;;;;;;;32.57;36.81;99374.46;223258;1267;138416;-93
2023/07/24 10:05:44;;;;;;;6.50;3.60;;;;;;;32.92;37.29;99364.36;223709;1266;137785;-91
2023/07/24 10:10:46;;;;;;;8.30;3.60;;;;;;;33.15;36.37;99372.20;223103;1267;140204;-94
2023/07/24 10:15:49;;;;;;;7.60;3.10;;;;;;;33.22;35.35;99381.16;223635;1266;138216;-94
2023/07/24 10:21:04;;;;;;;6.80;3.80;;;;;;;32.97;35.16;99375.33;223048;1267;139061;-91
2023/07/24 10:26:06;;;;;;;8.40;3.30;;;;;;;33.00;35.23;99379.31;223598;1267;138020;-92
2023/07/24 10:31:11;;;;;;;8.70;3.90;;;;;;;32.96;35.40;99379.92;223178;1266;139879;-92
2023/07/24 10:36:13;;;;;;;5.20;3.10;;;;;;;32.92;34.76;99378.32;223672;1266;137717;-87
2023/07/24 10:41:14;;;;;;;7.60;3.30;;;;;;;32.81;34.45;99378.46;223143;1266;140429;-88
2023/07/24 10:46:17;;;;;;;6.70;3.40;;;;;;;32.62;35.31;99374.90;223715;1267;137948;-91
2023/07/24 10:51:18;;;;;;;7.90;3.90;;;;;;;32.77;36.01;99365.47;223056;1267;140325;-91
2023/07/24 10:56:19;;;;;;;6.20;3.50;;;;;;;33.08;35.90;99361.94;223748;1266;138535;-92
2023/07/24 11:01:19;;;;;;;7.30;4.10;;;;;;;33.16;34.66;99363.05;223183;1267;139750;-88
2023/07/24 11:06:23;;;;;;;6.50;3.40;;;;;;;32.83;34.29;99352.88;223635;1266;138039;-90
2023/07/24 11:11:34;;;;;;;5.90;3.40;;;;;;;32.71;35.02;99347.77;223075;1266;139522;-91
2023/07/24 11:16:35;;;;;;;7.60;3.90;;;;;;;33.05;35.85;99338.18;223541;1267;138494;-88
2023/07/24 11:21:36;;;;;;;8.20;4.00;;;;;;;33.40;34.44;99339.25;223155;1267;140009;-91
2023/07/24 11:26:37;;;;;;;8.40;4.30;;;;;;;33.47;33.66;99339.04;223734;1267;137976;-93
2023/07/24 11:31:40;;;;;;;7.10;4.10;;;;;;;32.86;33.95;99324.39;223213;1266;139460;-89
2023/07/24 11:36:41;;;;;;;9.00;4.00;;;;;;;32.60;34.61;99318.23;223715;1266;99894;-92
2023/07/24 11:41:42;;;;;;;7.40;3.90;;;;;;;32.44;34.60;99309.45;223095;1267;140635;-93
2023/07/24 11:46:43;;;;;;;8.70;4.40;;;;;;;32.00;34.79;99305.73;223653;1266;138141;-92
2023/07/24 11:51:44;;;;;;;11.00;4.70;;;;;;;31.83;34.85;99306.00;223169;1266;141062;-91
2023/07/24 11:56:44;;;;;;;9.10;3.90;;;;;;;31.74;35.51;99291.64;223616;1267;138212;-92
2023/07/24 12:01:47;;;;;;;9.90;4.40;;;;;;;31.55;35.30;99282.50;223096;1266;140316;-89
2023/07/24 12:06:48;;;;;;;9.30;4.30;;;;;;;31.34;35.75;99279.00;223701;1266;95992;-90
2023/07/24 12:11:49;;;;;;;8.50;4.40;;;;;;;31.46;36.21;99264.70;223143;1267;140002;-89
2023/07/24 12:16:50;;;;;;;7.50;3.90;;;;;;;31.54;35.58;99259.61;223505;1266;138640;-91
2023/07/24 12:21:50;;;;;;;7.30;3.60;;;;;;;31.55;36.30;99253.02;223017;1267;139543;-89
2023/07/24 12:26:51;;;;;;;7.90;4.10;;;;;;;31.60;36.43;99240.04;223555;1266;138242;-91
2023/07/24 12:31:53;;;;;;;9.60;4.40;;;;;;;31.70;35.90;99232.28;223061;1267;139902;-93
2023/07/24 12:36:54;;;;;;;7.20;4.00;;;;;;;31.80;35.66;99220.73;223675;1266;96127;-92
2023/07/24 12:41:54;;;;;;;7.70;4.30;;;;;;;32.04;36.45;99202.92;223033;1267;139897;-89
2023/07/24 12:46:55;;;;;;;7.90;3.70;;;;;;;32.17;34.66;99193.22;223608;1267;138728;-92
2023/07/24 12:51:56;;;;;;;7.90;4.40;;;;;;;32.14;34.45;99188.33;222982;1266;139468;-94
2023/07/24 12:56:56;;;;;;;9.30;4.30;;;;;;;32.19;34.06;99182.72;223696;1266;138096;-91
2023/07/24 13:01:57;;;;;;;8.50;4.00;;;;;;;32.26;33.75;99187.29;223084;1266;140655;-91
2023/07/24 13:07:01;;;;;;;7.70;4.10;;;;;;;32.34;33.72;99181.23;223833;1266;95926;-93
2023/07/24 13:12:02;;;;;;;8.20;3.90;;;;;;;32.49;32.95;99178.47;223041;1266;140836;-89
2023/07/24 13:17:02;;;;;;;7.80;4.50;;;;;;;32.43;32.10;99170.07;223753;1266;137993;-91
2023/07/24 13:22:03;;;;;;;9.30;4.40;;;;;;;32.46;32.22;99165.84;223181;1266;140750;-88
2023/07/24 13:27:04;;;;;;;7.90;4.00;;;;;;;32.66;32.37;99155.95;223748;1267;138024;-89
2023/07/24 13:32:05;;;;;;;7.90;3.90;;;;;;;32.95;32.06;99156.15;223164;1266;140141;-92
2023/07/24 13:37:06;;;;;;;8.80;4.40;;;;;;;32.90;31.06;99158.63;223817;1266;95845;-91
2023/07/24 13:42:07;;;;;;;7.40;4.10;;;;;;;32.69;31.73;99138.14;223037;1267;139555;-91
2023/07/24 13:47:07;;;;;;;10.60;4.40;;;;;;;32.63;31.72;99122.98;223668;1267;138351;-89
2023/07/24 13:52:08;;;;;;;8.90;3.90;;;;;;;32.74;31.65;99126.66;223127;1266;142036;-91
2023/07/24 13:57:09;;;;;;;8.40;4.40;;;;;;;32.66;31.03;99118.59;223701;1266;138553;-91
2023/07/24 14:02:09;;;;;;;7.10;4.20;;;;;;;32.53;30.92;99110.05;223198;1266;141295;-87
2023/07/24 14:07:12;;;;;;;8.80;4.70;;;;;;;32.15;30.96;99100.88;223770;1267;95763;-88
2023/07/24 14:12:19;;;;;;;9.10;4.30;;;;;;;32.02;31.60;99087.48;223083;1267;140001;-94
2023/07/24 14:17:20;;;;;;;9.90;4.80;;;;;;;32.04;31.54;99094.02;223556;1267;137945;-91
2023/07/24 14:22:20;;;;;;;10.10;5.70;;;;;;;31.94;30.89;99083.20;223161;1267;140415;-91
2023/07/24 14:27:21;;;;;;;9.60;5.40;;;;;;;31.79;30.52;99075.09;223699;1267;138559;-92
2023/07/24 14:32:22;;;;;;;16.20;6.70;;;;;;;31.58;30.60;99071.59;223150;1267;140432;-90
2023/07/24 14:37:22;;;;;;;11.10;5.80;;;;;;;31.46;31.29;99052.95;223852;1267;95967;-90
2023/07/24 14:42:24;;;;;;;16.80;6.30;;;;;;;31.35;31.48;99038.02;223101;1266;139611;-91
2023/07/24 14:47:24;;;;;;;9.50;5.50;;;;;;;31.32;31.98;99031.42;223607;1266;138379;-88
2023/07/24 14:52:25;;;;;;;12.40;6.70;;;;;;;31.33;31.91;99024.61;223169;1267;139705;-89
2023/07/24 14:57:26;;;;;;;12.10;6.40;;;;;;;31.20;32.56;99016.18;223611;1267;138872;-91
2023/07/24 15:02:27;;;;;;;14.40;6.70;;;;;;;31.26;32.41;99011.02;223217;1266;139964;-92
2023/07/24 15:07:28;;;;;;;9.40;5.40;;;;;;;31.24;32.90;98997.75;223635;1267;96030;-91
2023/07/24 15:12:30;;;;;;;12.50;6.00;;;;;;;31.23;33.15;98992.85;223117;1267;141229;-91
2023/07/24 15:17:32;;;;;;;10.40;5.40;;;;;;;31.18;32.99;98984.60;223644;1267;138614;-92
2023/07/24 15:22:33;;;;;;;9.70;5.30;;;;;;;30.98;33.01;98975.58;223025;1266;140228;-92
2023/07/24 15:27:33;;;;;;;11.40;5.70;;;;;;;30.84;33.52;98966.24;223641;1267;138319;-92
2023/07/24 15:32:34;;;;;;;12.50;6.10;;;;;;;30.75;33.58;98954.31;223242;1267;141447;-92
2023/07/24 15:37:34;;;;;;;11.30;5.40;;;;;;;30.64;33.68;98952.86;223688;1267;95948;-91
2023/07/24 15:42:35;;;;;;;13.30;6.30;;;;;;;30.58;33.91;98943.35;223069;1267;140663;-88
2023/07/24 15:47:36;;;;;;;10.20;6.00;;;;;;;30.48;34.08;98939.38;223704;1267;138380;-90
2023/07/24 15:52:37;;;;;;;11.10;5.60;;;;;;;30.35;34.52;98922.66;223247;1266;140771;-92
2023/07/24 15:57:38;;;;;;;13.10;5.90;;;;;;;30.27;34.56;98917.06;223697;1267;138348;-85
2023/07/24 16:02:38;;;;;;;10.80;6.50;;;;;;;30.15;35.14;98907.98;223222;1267;139893;-90
2023/07/24 16:07:39;;;;;;;12.20;7.40;;;;;;;30.02;36.01;98900.83;223764;1267;138234;-91
2023/07/24 16:12:40;;;;;;;13.40;7.40;;;;;;;29.93;36.47;98892.49;223145;1267;140470;-89
2023/07/24 16:17:40;;;;;;;16.30;8.00;;;;;;;29.78;36.08;98881.95;223659;1266;138785;-87
2023/07/24 16:22:41;;;;;;;17.60;8.10;;;;;;;29.67;36.83;98881.45;223057;1266;140852;-88
2023/07/24 16:27:41;;;;;;;16.40;8.20;;;;;;;29.56;37.39;98880.41;223739;1267;138167;-91
2023/07/24 16:32:44;;;;;;;15.80;8.20;;;;;;;29.41;37.93;98869.95;223025;1267;140381;-91
2023/07/24 16:37:45;;;;;;;15.50;8.20;;;;;;;29.27;38.68;98867.84;223731;1267;138529;-92
2023/07/24 16:42:48;;;;;;;19.60;8.10;;;;;;;29.11;39.24;98867.39;223185;1266;140898;-91
2023/07/24 16:47:49;;;;;;;14.70;8.30;;;;;;;28.92;39.28;98864.38;223791;1266;138076;-89
2023/07/24 16:52:50;;;;;;;13.00;7.90;;;;;;;28.78;39.35;98868.71;223054;1267;141622;-90
2023/07/24 16:57:50;;;;;;;15.10;6.90;;;;;;;28.66;39.42;98874.20;223761;1267;138803;-89
2023/07/24 17:02:51;;;;;;;12.80;7.40;;;;;;;28.57;39.29;98874.44;223120;1266;141326;-91
2023/07/24 17:07:52;;;;;;;16.20;8.10;;;;;;;28.46;39.60;98879.13;223736;1267;138308;-90
2023/07/24 17:12:56;;;;;;;14.50;7.90;;;;;;;28.39;39.74;98870.77;223221;1267;140027;-91
2023/07/24 17:17:56;;;;;;;14.00;7.70;;;;;;;28.36;39.99;98857.13;223498;1267;138068;-92
2023/07/24 17:22:57;;;;;;;15.40;7.90;;;;;;;28.31;40.14;98854.97;223007;1267;139565;-89
2023/07/24 17:27:58;;;;;;;13.50;7.60;;;;;;;28.24;40.46;98846.42;223720;1267;138250;-94
2023/07/24 17:33:01;;;;;;;13.90;7.40;;;;;;;28.21;40.69;98846.20;223161;1266;141079;-90
2023/07/24 17:38:02;;;;;;;14.70;7.60;;;;;;;28.17;40.77;98851.14;223579;1266;138520;-91
2023/07/24 17:43:03;;;;;;;14.70;7.80;;;;;;;28.06;41.07;98864.25;223341;1267;140102;-88
2023/07/24 17:48:04;;;;;;;13.30;7.80;;;;;;;27.96;41.39;98856.75;223775;1267;138062;-90
2023/07/24 17:53:04;;;;;;;18.80;8.50;;;;;;;27.89;41.69;98861.73;223236;1267;141322;-90
2023/07/24 17:58:05;;;;;;;15.20;8.00;;;;;;;27.81;41.85;98847.98;223770;1266;138364;-90
2023/07/24 18:03:06;;;;;;;15.90;8.00;;;;;;;27.73;42.23;98844.04;223160;1267;139678;-90
2023/07/24 18:08:09;;;;;;;16.00;8.60;;;;;;;27.61;42.06;98847.27;223608;1267;138984;-89
2023/07/24 18:13:13;;;;;;;14.30;7.10;;;;;;;27.47;42.28;98845.83;223184;1267;139873;-88
2023/07/24 18:18:13;;;;;;;14.40;7.10;;;;;;;27.35;42.64;98842.41;223596;1267;138681;-90
2023/07/24 18:23:14;;;;;;;15.40;8.70;;;;;;;27.23;42.94;98845.20;223118;1267;140278;-92
2023/07/24 18:28:16;;;;;;;14.30;8.00;;;;;;;27.09;43.19;98854.48;223740;1267;138894;-91
2023/07/24 18:33:16;;;;;;;12.50;6.90;;;;;;;26.96;43.45;98844.02;223145;1266;140192;-88
2023/07/24 18:38:17;;;;;;;13.00;7.60;;;;;;;26.83;44.09;98839.82;223647;1268;138463;-90
2023/07/24 18:43:17;;;;;;;14.80;7.00;;;;;;;26.69;44.36;98831.05;223345;1268;139854;-89
2023/07/24 18:48:18;;;;;;;15.50;6.80;;;;;;;26.58;44.53;98826.35;223636;1268;138633;-90
2023/07/24 18:53:18;;;;;;;16.00;6.90;;;;;;;26.48;44.90;98832.72;222983;1266;140267;-88
2023/07/24 18:58:19;;;;;;;14.10;7.00;;;;;;;26.36;45.54;98842.73;223693;1267;138248;-89
2023/07/24 19:03:19;;;;;;;13.10;7.00;;;;;;;26.18;46.60;98852.43;223154;1267;140090;-88
2023/07/24 19:08:20;;;;;;;10.80;6.20;;;;;;;25.95;47.00;98857.77;223707;1267;139044;-89
2023/07/24 19:13:20;;;;;;;12.20;6.90;;;;;;;25.81;47.54;98868.23;223262;1268;141377;-88
2023/07/24 19:18:21;;;;;;;12.50;6.20;;;;;;;25.63;48.63;98873.06;223759;1268;138391;-89
2023/07/24 19:23:21;;;;;;;13.20;6.80;;;;;;;25.35;49.00;98870.60;223160;1268;140545;-89
2023/07/24 19:28:22;;;;;;;12.70;6.20;;;;;;;25.20;49.91;98879.88;223693;1266;139644;-88
2023/07/24 19:33:26;;;;;;;11.90;5.60;;;;;;;25.01;50.55;98883.80;223046;1268;142371;-88
2023/07/24 19:38:27;;;;;;;11.30;5.70;;;;;;;24.82;51.27;98888.55;223630;1267;138780;-88
2023/07/24 19:43:28;;;;;;;12.90;4.90;;;;;;;24.68;51.58;98893.64;223144;1267;139720;-89
2023/07/24 19:48:28;;;;;;;10.50;5.20;;;;;;;24.60;52.30;98904.84;223498;1267;138745;-89
2023/07/24 19:53:29;;;;;;;13.80;6.20;;;;;;;24.50;52.67;98912.41;223151;1268;142025;-88
2023/07/24 19:58:35;;;;;;;11.50;4.90;;;;;;;24.35;53.74;98913.59;223687;1268;138528;-88
2023/07/24 20:03:35;;;;;;;11.30;5.30;;;;;;;24.18;54.50;98919.30;223068;1270;140247;-89
2023/07/24 20:08:36;;;;;;;9.40;4.20;;;;;;;24.04;55.18;98909.17;223527;1268;138722;-89
2023/07/24 20:13:39;;;;;;;11.70;4.80;;;;;;;23.93;55.25;98897.69;223121;1267;139324;-89
2023/07/24 20:18:40;;;;;;;12.00;4.90;;;;;;;23.89;55.59;98881.15;223607;1268;137857;-88
2023/07/24 20:23:41;;;;;;;9.20;4.90;;;;;;;23.76;56.40;98868.50;223135;1268;140901;-88
2023/07/24 20:28:43;;;;;;;8.40;4.40;;;;;;;23.67;56.09;98877.29;223684;1266;138686;-89
2023/07/24 20:33:43;;;;;;;9.80;5.00;;;;;;;23.60;56.95;98865.55;222997;1267;140263;-89
2023/07/24 20:38:44;;;;;;;9.00;4.80;;;;;;;23.41;57.83;98866.92;223629;1267;138627;-89
2023/07/24 20:43:44;;;;;;;9.30;4.60;;;;;;;23.22;57.77;98873.48;223058;1267;140543;-89
2023/07/24 20:48:45;;;;;;;11.10;4.60;;;;;;;23.15;58.15;98881.52;223696;1270;96059;-89
2023/07/24 20:53:46;;;;;;;12.40;5.00;;;;;;;22.93;59.42;98868.23;223088;1267;139429;-89
2023/07/24 20:58:49;;;;;;;9.10;4.40;;;;;;;22.73;59.54;98866.61;223561;1270;138365;-89
2023/07/24 21:03:51;;;;;;;8.60;4.10;;;;;;;22.68;59.82;98870.23;223054;1270;140049;-88
2023/07/24 21:08:52;;;;;;;10.20;4.80;;;;;;;22.59;60.60;98871.02;223668;1266;140313;-90
2023/07/24 21:13:53;;;;;;;12.80;4.80;;;;;;;22.50;63.22;99025.44;222953;1267;141124;-90
2023/07/24 21:18:54;;;;;;;8.40;2.90;;;;;;;22.15;67.56;99054.24;223694;1267;96069;-84
2023/07/24 21:23:54;;;;;;;8.10;2.90;;;;;;;21.67;68.85;99017.86;223001;1267;140116;-85
2023/07/24 21:28:57;;;;;;;7.70;3.20;;;;;;;21.46;70.12;98994.39;223460;1268;140221;-85
2023/07/24 21:33:58;;;;;;;8.00;2.90;;;;;;;21.27;71.13;98977.55;223305;1270;137998;-85
2023/07/24 21:38:58;;;;;;;9.20;3.20;;;;;;;21.10;70.88;98958.48;222809;1266;259543;-86
2023/07/24 21:43:59;;;;;;;8.50;3.50;;;;;;;20.97;71.92;98948.90;223546;1268;138973;-87
2023/07/24 21:48:59;;;;;;;8.10;2.70;;;;;;;20.87;73.52;98939.10;223152;1268;166326;-87
2023/07/24 21:54:00;;;;;;;7.90;2.70;;;;;;;20.73;75.22;98939.14;223542;1268;138934;-87
2023/07/24 21:59:00;;;;;;;6.90;2.30;;;;;;;20.60;75.40;98935.95;223026;1268;141798;-86
2023/07/24 22:04:01;;;;;;;7.80;3.40;;;;;;;20.48;76.06;98915.44;223611;1266;139324;-86
2023/07/24 22:09:02;;;;;;;4.30;2.10;;;;;;;20.37;77.60;98914.20;223016;1267;143018;-87
2023/07/24 22:14:02;;;;;;;7.10;2.70;;;;;;;20.25;77.63;98892.39;223568;1267;139708;-86
2023/07/24 22:19:03;;;;;;;10.10;2.60;;;;;;;20.20;78.83;98896.10;223132;1267;141650;-87
2023/07/24 22:24:04;;;;;;;8.90;2.10;;;;;;;20.12;79.50;98903.04;223522;1268;139046;-87
2023/07/24 22:29:04;;;;;;;8.10;2.80;;;;;;;20.02;80.09;98905.56;223007;1268;141534;-87
2023/07/24 22:34:05;;;;;;;8.60;2.90;;;;;;;19.95;80.02;98901.44;223548;1267;139011;-87
2023/07/24 22:39:06;;;;;;;7.10;2.70;;;;;;;19.89;81.27;98902.36;223047;1271;142737;-86
2023/07/24 22:44:06;;;;;;;7.40;2.70;;;;;;;19.81;81.62;98903.89;223557;1266;139107;-87
2023/07/24 22:49:07;;;;;;;7.00;2.50;;;;;;;19.75;81.82;98904.38;223150;1267;140960;-86
2023/07/24 22:54:07;;;;;;;6.10;2.60;;;;;;;19.67;82.04;98904.20;223534;1267;139246;-87
2023/07/24 22:59:21;;;;;;;7.10;2.50;;;;;;;19.58;83.37;98913.99;223040;1267;140904;-86